Time;durP1;ratioP1;P1;durP2;ratioP2;P2;SDS_P1;SDS_P2;PMS_P1;PMS_P2;Temp;Humidity;BMP_temperature;BMP_pressure;BME280_temperature;BME280_humidity;BME280_pressure;Samples;Min_cycle;Max_cycle;Signal;HPM_P1;HPM_P2
2023/02/15 00:14:13;;;;;;;;;;;;;;;;;;;;;
2023/02/15 00:17:20;;;;;;;11.87;3.43;;;0.80;99.90;;;;;;6276949;22;20221;-92
2023/02/15 00:48:43;;;;;;;12.17;4.00;;;0.60;99.90;;;;;;6309380;22;20027;-93
2023/02/15 00:59:17;;;;;;;11.30;3.67;;;-0.40;99.90;;;;;;6279130;22;20143;-91
2023/02/15 01:02:21;;;;;;;;;;;;;;;;;;;;;
2023/02/15 01:09:23;;;;;;;11.23;3.40;;;2.10;99.90;;;;;;6279907;22;20010;-92
2023/02/15 01:11:53;;;;;;;;;;;;;;;;;;;;;
2023/02/15 01:15:12;;;;;;;12.27;3.53;;;1.00;99.90;;;;;;6267502;22;20079;-93
2023/02/15 01:21:47;;;;;;;;;;;;;;;;;;;;;
2023/02/15 01:24:54;;;;;;;10.63;3.93;;;0.60;99.90;;;;;;6140814;22;20077;-91
2023/02/15 01:31:33;;;;;;;10.07;4.37;;;0.30;99.90;;;;;;6281456;22;20004;-92
2023/02/15 01:33:59;;;;;;;11.67;4.23;;;0.00;99.90;;;;;;6257845;22;20015;-87
2023/02/15 01:36:24;;;;;;;12.60;4.40;;;1.80;99.90;;;;;;6285247;22;20015;-88
2023/02/15 01:38:50;;;;;;;10.17;4.10;;;2.00;99.90;;;;;;6285663;22;20333;-88
2023/02/15 01:41:26;;;;;;;10.63;3.70;;;0.10;99.90;;;;;;6286748;22;19999;-88
2023/02/15 01:44:00;;;;;;;10.80;4.53;;;1.00;99.90;;;;;;6309970;22;20002;-88
2023/02/15 01:46:41;;;;;;;10.23;3.57;;;1.30;99.90;;;;;;6283755;22;20003;-88
2023/02/15 01:49:19;;;;;;;13.23;4.07;;;0.80;99.90;;;;;;6312301;22;19999;-88
2023/02/15 01:51:48;;;;;;;9.40;3.77;;;1.10;99.90;;;;;;6284046;22;20017;-88
2023/02/15 01:54:25;;;;;;;16.20;4.77;;;0.20;99.90;;;;;;6313931;22;19999;-88
2023/02/15 01:56:54;;;;;;;9.10;4.00;;;0.20;99.90;;;;;;6312159;22;20007;-87
2023/02/15 01:59:23;;;;;;;16.03;4.20;;;0.10;99.90;;;;;;6287259;22;20003;-87
2023/02/15 02:01:50;;;;;;;11.83;3.60;;;1.50;99.90;;;;;;6314086;22;19999;-88
2023/02/15 02:04:30;;;;;;;10.50;3.90;;;0.00;99.90;;;;;;6287544;22;20430;-86
2023/02/15 02:06:59;;;;;;;10.70;3.97;;;0.10;99.90;;;;;;6315561;22;20028;-88
2023/02/15 02:09:25;;;;;;;12.67;4.10;;;0.10;99.90;;;;;;6287770;22;20003;-87
2023/02/15 02:11:51;;;;;;;8.97;3.80;;;0.10;99.90;;;;;;6312817;22;20003;-88
2023/02/15 02:14:17;;;;;;;14.67;4.03;;;0.20;99.90;;;;;;6316131;22;19999;-87
2023/02/15 02:17:05;;;;;;;11.27;4.07;;;-0.30;99.90;;;;;;6313400;22;20055;-87
2023/02/15 02:19:40;;;;;;;13.97;4.07;;;0.10;99.90;;;;;;6287812;22;20010;-88
2023/02/15 02:22:15;;;;;;;10.20;3.60;;;0.10;99.90;;;;;;6314047;22;20066;-87
2023/02/15 02:24:46;;;;;;;12.33;4.73;;;0.10;99.90;;;;;;6289112;22;20039;-88
2023/02/15 02:27:24;;;;;;;5.65;2.35;;;0.10;99.90;;;;;;6287956;22;20006;-87
2023/02/15 02:30:06;;;;;;;16.20;5.27;;;0.00;99.90;;;;;;6313876;22;19999;-88
2023/02/15 02:33:06;;;;;;;11.43;4.18;;;0.00;99.90;;;;;;6286820;22;20158;-88
2023/02/15 02:35:42;;;;;;;13.50;4.97;;;0.10;99.90;;;;;;6315570;22;20007;-88
2023/02/15 02:38:27;;;;;;;13.23;5.80;;;1.00;99.90;;;;;;6286635;22;20003;-89
2023/02/15 02:41:08;;;;;;;8.70;3.30;;;0.00;99.90;;;;;;6288108;22;20030;-87
2023/02/15 02:44:15;;;;;;;8.90;2.80;;;0.00;99.90;;;;;;6286686;22;20064;-89
2023/02/15 02:46:46;;;;;;;10.77;3.87;;;0.00;99.90;;;;;;6313448;22;20003;-89
2023/02/15 02:49:12;;;;;;;14.67;3.90;;;-0.70;99.90;;;;;;6314852;22;20003;-89
2023/02/15 02:51:38;;;;;;;12.43;3.93;;;-0.40;99.90;;;;;;6314103;22;20455;-88
2023/02/15 02:54:06;;;;;;;9.43;4.00;;;-0.10;99.90;;;;;;6312770;22;20003;-89
2023/02/15 02:56:37;;;;;;;11.43;4.37;;;1.70;99.90;;;;;;6313051;22;20003;-89
2023/02/15 02:59:17;;;;;;;9.17;3.67;;;0.00;99.90;;;;;;6285691;22;20010;-87
2023/02/15 03:02:03;;;;;;;12.83;4.07;;;-0.30;99.90;;;;;;6313070;22;20434;-88
2023/02/15 03:04:35;;;;;;;10.30;3.80;;;-0.20;99.90;;;;;;6267605;22;20346;-89
2023/02/15 03:07:04;;;;;;;11.15;4.22;;;-0.30;99.90;;;;;;6284070;22;20030;-89
2023/02/15 03:09:42;;;;;;;10.13;3.87;;;-0.20;99.90;;;;;;6312645;22;20074;-89
2023/02/15 03:12:36;;;;;;;11.63;4.73;;;-0.20;99.90;;;;;;6286974;22;20057;-88
2023/02/15 03:15:07;;;;;;;10.67;4.17;;;-0.10;99.90;;;;;;6314115;22;19999;-88
2023/02/15 03:17:37;;;;;;;8.77;4.17;;;0.20;99.90;;;;;;6286685;22;20691;-89
2023/02/15 03:20:25;;;;;;;11.20;4.00;;;1.40;99.90;;;;;;6314628;22;20004;-88
2023/02/15 03:23:04;;;;;;;9.60;4.23;;;-0.10;99.90;;;;;;6313755;22;20004;-88
2023/02/15 03:25:42;;;;;;;13.97;4.30;;;-0.20;99.90;;;;;;6285912;22;20010;-88
2023/02/15 03:28:12;;;;;;;14.40;4.33;;;-0.20;99.90;;;;;;6286418;22;20080;-88
2023/02/15 03:30:41;;;;;;;12.97;5.07;;;-0.20;99.90;;;;;;6287129;22;20000;-89
2023/02/15 03:33:08;;;;;;;8.53;3.87;;;-0.30;99.90;;;;;;6314326;22;20075;-88
2023/02/15 03:35:44;;;;;;;12.77;4.17;;;1.60;99.90;;;;;;6315364;22;20003;-89
2023/02/15 03:38:13;;;;;;;11.90;4.60;;;-0.80;99.90;;;;;;6288161;22;20747;-88
2023/02/15 03:43:44;;;;;;;12.60;4.60;;;-0.60;99.90;;;;;;6312723;22;20049;-89
2023/02/15 03:46:17;;;;;;;12.95;4.10;;;-0.30;99.90;;;;;;6285149;22;20087;-89
2023/02/15 03:48:50;;;;;;;13.63;4.63;;;0.00;99.90;;;;;;6310697;22;19997;-88
2023/02/15 03:51:33;;;;;;;13.97;4.20;;;-0.40;99.90;;;;;;6280579;22;20003;-88
2023/02/15 04:03:11;;;;;;;9.97;2.97;;;-0.40;99.90;;;;;;6314099;22;20021;-89
2023/02/15 04:05:37;;;;;;;10.83;4.00;;;-0.40;99.90;;;;;;6286794;22;20318;-88
2023/02/15 04:08:03;;;;;;;12.13;3.87;;;-0.50;99.90;;;;;;6314116;22;20006;-87
2023/02/15 04:13:13;;;;;;;10.80;3.90;;;-0.50;99.90;;;;;;6313034;22;20060;-89
2023/02/15 04:26:36;;;;;;;7.50;3.70;;;-0.70;99.90;;;;;;6312134;22;20065;-88
2023/02/15 04:29:01;;;;;;;11.87;3.47;;;-1.50;99.90;;;;;;6311500;22;20007;-89
2023/02/15 04:31:27;;;;;;;13.43;3.87;;;-0.50;99.90;;;;;;6311030;22;20091;-89
2023/02/15 04:33:53;;;;;;;13.70;4.50;;;-0.80;99.90;;;;;;6309979;22;20442;-89
2023/02/15 04:36:18;;;;;;;10.97;3.77;;;0.70;99.90;;;;;;6310648;22;20007;-89
2023/02/15 04:38:44;;;;;;;12.87;4.13;;;-0.40;99.90;;;;;;6311526;22;19995;-88
2023/02/15 04:41:11;;;;;;;11.53;4.23;;;-0.50;99.90;;;;;;6311443;22;20054;-89
2023/02/15 04:43:36;;;;;;;11.80;4.53;;;-0.50;99.90;;;;;;6312578;22;20004;-89
2023/02/15 04:46:02;;;;;;;11.93;4.27;;;0.60;99.90;;;;;;6311934;22;20050;-88
2023/02/15 04:48:28;;;;;;;12.60;4.10;;;0.70;99.90;;;;;;6310488;22;20460;-90
2023/02/15 04:50:53;;;;;;;10.33;3.90;;;-0.50;99.90;;;;;;6308835;22;20603;-89
2023/02/15 04:53:19;;;;;;;12.63;4.03;;;-0.80;99.90;;;;;;6307935;22;20078;-89
2023/02/15 04:55:44;;;;;;;12.50;4.07;;;-0.80;99.90;;;;;;6310093;22;20011;-88
2023/02/15 04:58:10;;;;;;;11.20;4.33;;;1.00;99.90;;;;;;6308187;22;20010;-88
2023/02/15 05:00:45;;;;;;;13.37;4.07;;;-0.70;99.90;;;;;;6309311;22;20041;-89
2023/02/15 05:03:10;;;;;;;12.57;3.93;;;0.10;99.90;;;;;;6308985;22;20548;-89
2023/02/15 05:05:36;;;;;;;10.00;3.77;;;-0.90;99.90;;;;;;6308976;22;20004;-88
2023/02/15 05:08:01;;;;;;;10.20;3.37;;;-0.80;99.90;;;;;;6310037;22;20010;-89
2023/02/15 05:10:27;;;;;;;10.70;3.70;;;-0.90;99.90;;;;;;6311391;22;20006;-88
2023/02/15 05:12:53;;;;;;;11.70;4.87;;;-0.80;99.90;;;;;;6312765;22;20031;-89
2023/02/15 05:15:18;;;;;;;11.63;4.20;;;-0.70;99.90;;;;;;6310090;22;20054;-88
2023/02/15 05:17:44;;;;;;;14.60;4.63;;;-0.70;99.90;;;;;;6280334;22;20028;-89
2023/02/15 05:20:10;;;;;;;11.83;4.43;;;-0.70;99.90;;;;;;6313926;22;20074;-88
2023/02/15 05:22:35;;;;;;;11.07;4.13;;;-0.70;99.90;;;;;;6312776;22;20071;-89
2023/02/15 05:30:29;;;;;;;12.60;4.37;;;0.10;99.90;;;;;;6312804;22;20006;-88
2023/02/15 05:32:55;;;;;;;11.07;3.33;;;-0.80;99.90;;;;;;6312774;22;20027;-89
2023/02/15 05:35:21;;;;;;;10.07;3.63;;;-0.80;99.90;;;;;;6311870;22;20057;-89
2023/02/15 05:37:46;;;;;;;10.03;3.87;;;-0.80;99.90;;;;;;6313040;22;20005;-89
2023/02/15 05:40:12;;;;;;;9.93;4.13;;;-0.40;99.90;;;;;;6314111;22;19995;-89
2023/02/15 05:42:38;;;;;;;13.10;4.30;;;-1.20;99.90;;;;;;6309722;22;20018;-89
2023/02/15 05:45:04;;;;;;;7.50;3.60;;;-0.80;99.90;;;;;;6306221;22;20010;-89
2023/02/15 05:47:30;;;;;;;12.37;4.20;;;-0.90;99.90;;;;;;6280757;22;20003;-89
2023/02/15 05:49:55;;;;;;;12.93;4.37;;;0.10;99.90;;;;;;6306741;22;20008;-89
2023/02/15 05:52:21;;;;;;;15.23;4.83;;;0.50;99.90;;;;;;6307868;22;20011;-88
2023/02/15 05:54:47;;;;;;;12.20;4.33;;;-1.00;99.90;;;;;;6309445;22;20011;-89
2023/02/15 05:57:12;;;;;;;10.87;3.83;;;-1.00;99.90;;;;;;6309867;22;20527;-88
2023/02/15 05:59:38;;;;;;;14.50;4.67;;;-0.90;99.90;;;;;;6308280;22;20003;-89
2023/02/15 06:02:03;;;;;;;9.97;3.97;;;-1.00;99.90;;;;;;6305888;22;20492;-89
2023/02/15 06:04:29;;;;;;;10.23;4.30;;;-0.90;99.90;;;;;;6307421;22;20005;-89
2023/02/15 06:06:55;;;;;;;12.30;4.23;;;-0.80;99.90;;;;;;6307954;22;20011;-89
2023/02/15 06:09:20;;;;;;;8.00;3.50;;;-0.80;99.90;;;;;;6307371;22;20007;-89
2023/02/15 06:11:46;;;;;;;11.73;4.53;;;-0.80;99.90;;;;;;6305861;22;20007;-88
2023/02/15 06:14:12;;;;;;;10.97;4.40;;;-0.80;99.90;;;;;;6307253;22;19999;-88
2023/02/15 06:16:37;;;;;;;10.20;4.43;;;-0.70;99.90;;;;;;6308152;22;20000;-89
2023/02/15 06:19:03;;;;;;;9.63;4.13;;;-0.80;99.90;;;;;;6307994;22;20056;-87
2023/02/15 06:21:30;;;;;;;9.73;4.17;;;-0.80;99.90;;;;;;6304381;22;20003;-86
2023/02/15 06:23:55;;;;;;;11.53;4.93;;;-0.80;99.90;;;;;;6306336;22;20004;-86
2023/02/15 06:26:21;;;;;;;13.67;4.87;;;-0.80;99.90;;;;;;6308358;22;20558;-86
2023/02/15 06:28:47;;;;;;;12.67;4.43;;;-0.80;99.90;;;;;;6309425;22;19999;-87
2023/02/15 06:31:13;;;;;;;10.13;4.37;;;-0.90;99.90;;;;;;6307075;22;19991;-87
2023/02/15 06:33:38;;;;;;;10.57;4.07;;;-0.80;99.90;;;;;;6307440;22;20022;-87
2023/02/15 06:36:04;;;;;;;11.40;4.47;;;-0.80;99.90;;;;;;6307893;22;20484;-87
2023/02/15 06:38:30;;;;;;;10.87;3.80;;;-0.80;99.90;;;;;;6309728;22;20003;-88
2023/02/15 06:40:57;;;;;;;13.13;5.27;;;-0.70;99.90;;;;;;6308228;22;20011;-88
2023/02/15 06:43:22;;;;;;;12.03;4.07;;;-0.70;99.90;;;;;;6306447;22;20014;-88
2023/02/15 06:45:49;;;;;;;16.07;4.77;;;-0.60;99.90;;;;;;6259390;22;20436;-88
2023/02/15 06:48:15;;;;;;;8.67;3.40;;;0.60;99.90;;;;;;6310653;22;20434;-88
2023/02/15 06:50:40;;;;;;;11.73;4.20;;;-0.70;99.90;;;;;;6310328;22;20010;-88
2023/02/15 06:53:06;;;;;;;10.00;3.20;;;-0.70;99.90;;;;;;6309191;22;20003;-88
2023/02/15 06:55:32;;;;;;;9.47;3.63;;;0.70;99.90;;;;;;6310677;22;20461;-87
2023/02/15 06:57:57;;;;;;;12.90;4.20;;;-0.70;99.90;;;;;;6309411;22;20468;-88
2023/02/15 07:00:23;;;;;;;16.87;4.80;;;-0.60;99.90;;;;;;6305373;22;20038;-88
2023/02/15 07:02:58;;;;;;;9.43;4.77;;;-0.50;99.90;;;;;;6310072;22;20010;-88
2023/02/15 07:05:30;;;;;;;10.73;3.57;;;-0.60;99.90;;;;;;6281181;22;20388;-87
2023/02/15 07:07:56;;;;;;;9.30;2.90;;;-0.80;99.90;;;;;;6282786;22;20007;-88
2023/02/15 07:10:22;;;;;;;10.07;4.10;;;-0.50;99.90;;;;;;6281303;22;20437;-87
2023/02/15 07:12:48;;;;;;;10.40;3.97;;;-0.50;99.90;;;;;;6308723;22;19999;-88
2023/02/15 07:15:16;;;;;;;13.97;4.07;;;-0.50;99.90;;;;;;6308180;22;20011;-88
2023/02/15 07:17:43;;;;;;;10.27;4.67;;;-0.40;99.90;;;;;;6282370;22;20431;-88
2023/02/15 07:20:12;;;;;;;15.07;4.20;;;-0.40;99.90;;;;;;6282687;22;20013;-88
2023/02/15 07:22:37;;;;;;;9.70;4.10;;;-0.30;99.90;;;;;;6283712;22;20011;-88
2023/02/15 07:25:05;;;;;;;10.20;4.43;;;-0.30;99.90;;;;;;6311641;22;20006;-88
2023/02/15 07:27:31;;;;;;;10.57;4.50;;;-0.20;99.90;;;;;;6310359;22;20073;-89
2023/02/15 07:29:57;;;;;;;15.63;4.27;;;-0.20;99.90;;;;;;6284463;22;20340;-87
2023/02/15 07:32:23;;;;;;;12.87;4.80;;;-0.20;99.90;;;;;;6308879;22;20007;-89
2023/02/15 07:34:48;;;;;;;9.87;3.83;;;-0.20;99.90;;;;;;6310365;22;20404;-89
2023/02/15 07:37:14;;;;;;;8.80;3.77;;;-0.20;99.90;;;;;;6309294;22;20027;-88
2023/02/15 07:39:39;;;;;;;12.27;4.37;;;-0.10;99.90;;;;;;6310968;22;20009;-87
2023/02/15 07:42:05;;;;;;;11.50;4.40;;;0.10;99.90;;;;;;6309078;22;20018;-88
2023/02/15 07:44:30;;;;;;;14.00;4.43;;;-0.10;99.90;;;;;;6312736;22;19999;-89
2023/02/15 07:46:56;;;;;;;11.57;4.37;;;0.20;99.90;;;;;;6310529;22;20007;-88
2023/02/15 07:49:22;;;;;;;9.53;4.30;;;0.20;99.90;;;;;;6308277;22;20010;-86
2023/02/15 07:51:47;;;;;;;11.77;4.57;;;0.60;99.90;;;;;;6309704;22;20065;-88
2023/02/15 07:54:13;;;;;;;11.93;4.37;;;2.00;99.90;;;;;;6314437;22;20250;-88
2023/02/15 07:56:39;;;;;;;11.37;4.40;;;0.30;99.90;;;;;;6287687;22;20003;-92
2023/02/15 07:59:08;;;;;;;10.27;4.23;;;1.10;99.90;;;;;;6319484;22;20037;-91
2023/02/15 08:01:38;;;;;;;15.10;4.67;;;0.00;99.90;;;;;;6320977;22;20018;-93
2023/02/15 08:04:09;;;;;;;10.17;4.13;;;1.70;99.90;;;;;;6294489;22;19999;-91
2023/02/15 08:06:41;;;;;;;13.13;4.70;;;0.50;99.90;;;;;;6294576;22;20041;-90
2023/02/15 08:09:08;;;;;;;10.20;4.70;;;1.00;99.90;;;;;;6321238;22;20007;-92
2023/02/15 08:11:36;;;;;;;12.77;3.90;;;1.20;99.90;;;;;;6294597;22;19999;-91
2023/02/15 08:14:17;;;;;;;11.30;4.47;;;0.40;99.90;;;;;;6294062;22;20027;-91
2023/02/15 08:16:50;;;;;;;10.47;4.33;;;1.30;99.90;;;;;;6294260;22;20015;-91
2023/02/15 08:19:20;;;;;;;;;;;1.10;99.90;;;;;;6295811;22;20059;-91
2023/02/15 08:21:51;;;;;;;10.13;3.83;;;0.80;99.90;;;;;;6293928;22;19907;-92
2023/02/15 08:24:29;;;;;;;11.40;3.73;;;3.20;99.90;;;;;;6294090;22;20093;-92
2023/02/15 08:26:58;;;;;;;13.73;4.17;;;1.80;99.90;;;;;;6294212;22;20063;-92
2023/02/15 08:29:29;;;;;;;8.30;4.20;;;0.90;99.90;;;;;;6292769;22;19999;-92
2023/02/15 08:32:13;;;;;;;12.97;4.07;;;1.10;99.90;;;;;;6293107;22;20011;-93
2023/02/15 08:34:45;;;;;;;11.43;4.20;;;0.60;99.90;;;;;;6292133;22;20007;-92
2023/02/15 08:37:11;;;;;;;11.02;4.45;;;1.40;99.90;;;;;;6314781;22;20000;-93
2023/02/15 08:39:36;;;;;;;14.90;5.10;;;1.30;99.90;;;;;;6312847;22;20007;-92
2023/02/15 08:42:03;;;;;;;10.70;3.80;;;1.60;99.90;;;;;;6312479;22;20039;-93
2023/02/15 08:44:29;;;;;;;9.10;3.77;;;1.60;99.90;;;;;;6284776;22;20009;-93
2023/02/15 08:46:57;;;;;;;10.13;4.20;;;1.70;99.90;;;;;;6308247;22;20003;-92
2023/02/15 08:49:23;;;;;;;12.60;4.27;;;1.40;99.90;;;;;;6311421;22;20006;-92
2023/02/15 08:51:53;;;;;;;12.07;4.50;;;3.10;99.90;;;;;;6316138;22;20013;-92
2023/02/15 08:54:21;;;;;;;12.87;5.33;;;3.50;99.90;;;;;;6317663;22;20000;-93
2023/02/15 08:56:47;;;;;;;10.17;4.70;;;2.20;99.90;;;;;;6287794;22;20010;-92
2023/02/15 08:59:19;;;;;;;11.57;4.87;;;2.10;99.90;;;;;;6290473;22;20003;-93
2023/02/15 09:01:46;;;;;;;15.27;5.82;;;2.30;99.90;;;;;;6291034;22;20196;-92
2023/02/15 09:04:15;;;;;;;12.80;4.33;;;2.60;99.90;;;;;;6290799;22;20372;-92
2023/02/15 09:06:43;;;;;;;12.73;5.53;;;4.00;99.90;;;;;;6289592;22;20705;-92
2023/02/15 09:09:10;;;;;;;11.00;4.57;;;2.20;99.90;;;;;;6290270;22;20000;-92
2023/02/15 09:11:40;;;;;;;13.40;4.10;;;2.60;99.90;;;;;;6291629;22;20031;-93
2023/02/15 09:14:20;;;;;;;9.30;4.03;;;2.90;99.90;;;;;;6291030;22;20077;-92
2023/02/15 09:16:49;;;;;;;14.03;4.27;;;3.10;99.90;;;;;;6291444;22;20069;-92
2023/02/15 09:19:17;;;;;;;8.30;3.93;;;4.40;99.90;;;;;;6291226;22;20004;-92
2023/02/15 09:21:42;;;;;;;13.67;4.57;;;3.20;99.90;;;;;;6291699;22;20015;-92
2023/02/15 09:24:13;;;;;;;12.37;4.90;;;4.10;99.90;;;;;;6317680;22;20029;-90
2023/02/15 09:26:42;;;;;;;11.30;4.60;;;3.40;99.90;;;;;;6320801;22;19999;-92
2023/02/15 09:29:09;;;;;;;14.80;4.83;;;3.10;99.90;;;;;;6294240;22;20021;-93
2023/02/15 09:31:44;;;;;;;13.73;4.80;;;3.60;99.90;;;;;;6297529;22;19999;-93
2023/02/15 09:34:16;;;;;;;8.90;3.83;;;5.20;99.90;;;;;;6303100;22;19991;-92
2023/02/15 09:36:47;;;;;;;12.30;4.47;;;6.00;99.90;;;;;;6303720;22;20011;-92
2023/02/15 09:39:24;;;;;;;11.53;4.17;;;4.40;99.90;;;;;;6300792;22;19992;-93
2023/02/15 09:42:02;;;;;;;14.00;4.90;;;3.30;99.90;;;;;;6293092;22;20007;-92
2023/02/15 09:44:52;;;;;;;10.90;4.33;;;5.20;99.90;;;;;;6291721;22;20057;-93
2023/02/15 09:47:48;;;;;;;9.90;3.70;;;4.30;99.90;;;;;;6291389;22;20507;-92
2023/02/15 09:50:50;;;;;;;10.70;4.70;;;4.30;99.90;;;;;;6291315;22;20003;-92
2023/02/15 09:53:36;;;;;;;12.70;4.67;;;4.50;99.90;;;;;;6191256;23;20005;-92
2023/02/15 09:56:10;;;;;;;13.40;4.63;;;5.30;99.90;;;;;;6284899;22;20051;-92
2023/02/15 10:02:10;;;;;;;11.23;4.67;;;4.40;99.90;;;;;;6309067;22;20665;-93
2023/02/15 10:04:45;;;;;;;14.93;4.73;;;4.70;99.90;;;;;;6289792;22;19999;-93
2023/02/15 10:07:58;;;;;;;10.73;4.63;;;4.80;99.90;;;;;;6291104;22;20034;-93
2023/02/15 10:10:35;;;;;;;11.90;4.63;;;5.10;99.90;;;;;;6290357;22;20626;-94
2023/02/15 10:13:10;;;;;;;12.70;4.97;;;5.50;99.90;;;;;;6288968;22;20010;-94
2023/02/15 10:20:07;;;;;;;7.50;3.63;;;6.80;99.90;;;;;;6146273;23;20006;-93
2023/02/15 10:23:03;;;;;;;11.63;3.93;;;7.00;99.90;;;;;;6162282;23;20005;-93
2023/02/15 10:25:41;;;;;;;12.13;3.90;;;5.30;99.90;;;;;;6195882;23;20001;-93
2023/02/15 10:28:15;;;;;;;9.67;4.37;;;4.60;99.90;;;;;;6292429;22;20153;-94
2023/02/15 10:30:55;;;;;;;11.20;4.10;;;5.30;99.90;;;;;;6292674;22;20078;-93
2023/02/15 10:33:45;;;;;;;11.50;3.93;;;5.10;99.90;;;;;;6292361;22;20007;-91
2023/02/15 10:36:33;;;;;;;10.03;3.90;;;6.30;99.90;;;;;;6320999;22;20010;-93
2023/02/15 10:39:11;;;;;;;9.23;4.50;;;4.60;99.90;;;;;;6294445;22;20019;-93
2023/02/15 10:42:18;;;;;;;10.40;4.43;;;5.10;99.90;;;;;;6295274;22;20056;-93
2023/02/15 10:45:12;;;;;;;11.43;4.80;;;5.70;99.90;;;;;;6296354;22;20027;-93
2023/02/15 10:48:01;;;;;;;10.73;3.83;;;5.80;99.90;;;;;;6293116;22;20325;-93
2023/02/15 10:50:46;;;;;;;10.80;4.63;;;5.90;99.90;;;;;;6293213;22;20003;-93
2023/02/15 10:53:42;;;;;;;10.87;4.23;;;7.00;99.90;;;;;;6291494;22;20003;-92
2023/02/15 10:56:33;;;;;;;11.80;4.20;;;6.10;99.90;;;;;;6293112;22;20008;-93
2023/02/15 10:59:27;;;;;;;11.07;4.27;;;6.70;99.90;;;;;;6293455;22;20000;-93
2023/02/15 11:01:59;;;;;;;10.20;3.90;;;;;;;;;;6291563;22;20011;-92
2023/02/15 11:04:46;;;;;;;;;;;6.20;99.90;;;;;;6293298;22;20066;-93
2023/02/15 11:07:25;;;;;;;11.10;2.73;;;6.20;99.90;;;;;;6292247;22;19906;-93
2023/02/15 11:10:19;;;;;;;9.30;3.13;;;8.60;99.90;;;;;;6292455;22;19999;-92
2023/02/15 11:12:52;;;;;;;11.27;3.03;;;;;;;;;;6292850;22;20049;-92
2023/02/15 11:15:55;;;;;;;7.87;3.23;;;6.70;99.90;;;;;;6292179;22;20326;-92
2023/02/15 11:18:40;;;;;;;10.32;3.42;;;7.10;99.90;;;;;;6273025;22;20008;-93
2023/02/15 11:21:20;;;;;;;9.93;3.53;;;7.20;99.90;;;;;;6292088;22;20018;-93
2023/02/15 11:23:48;;;;;;;11.30;3.67;;;;;;;;;;6292420;22;20067;-93
2023/02/15 11:26:39;;;;;;;9.50;3.90;;;;;;;;;;6293001;22;20057;-93
2023/02/15 11:29:25;;;;;;;13.85;3.72;;;7.40;99.90;;;;;;6292601;22;20063;-93
2023/02/15 11:31:54;;;;;;;10.20;3.15;;;;;;;;;;6291032;22;20002;-93
2023/02/15 11:34:28;;;;;;;10.80;4.43;;;;;;;;;;6292284;22;20015;-92
2023/02/15 11:36:59;;;;;;;11.70;3.50;;;7.80;99.90;;;;;;6292820;22;20059;-93
2023/02/15 11:39:35;;;;;;;9.32;3.85;;;7.80;99.90;;;;;;6291464;22;20067;-93
2023/02/15 11:42:12;;;;;;;11.57;4.35;;;8.70;99.90;;;;;;6293436;22;20027;-93
2023/02/15 11:44:46;;;;;;;8.20;3.28;;;8.00;99.90;;;;;;6291161;22;20006;-93
2023/02/15 11:47:13;;;;;;;11.60;3.72;;;8.00;99.90;;;;;;6292663;22;19999;-93
2023/02/15 11:49:45;;;;;;;8.88;3.30;;;8.00;99.90;;;;;;6290654;22;20473;-93
2023/02/15 11:52:14;;;;;;;7.43;3.30;;;7.50;99.90;;;;;;6319352;22;20009;-93
2023/02/15 11:54:57;;;;;;;8.10;3.25;;;9.10;99.90;;;;;;6293058;22;20007;-93
2023/02/15 11:57:29;;;;;;;;;;;9.80;99.90;;;;;;6295555;22;20010;-93
2023/02/15 12:00:36;;;;;;;7.95;2.97;;;8.90;99.90;;;;;;6295204;22;19906;-94
2023/02/15 12:03:14;;;;;;;9.43;3.60;;;10.00;99.90;;;;;;6295021;22;20004;-94
2023/02/15 12:05:50;;;;;;;10.38;4.25;;;10.60;99.90;;;;;;6301372;22;20003;-93
2023/02/15 12:08:34;;;;;;;12.60;5.32;;;9.10;99.90;;;;;;6301699;22;20103;-94
2023/02/15 12:11:17;;;;;;;15.10;4.75;;;10.40;99.90;;;;;;6300000;22;20067;-93
2023/02/15 12:14:15;;;;;;;11.45;4.75;;;9.60;99.90;;;;;;6290707;22;20023;-93
2023/02/15 12:16:53;;;;;;;11.07;4.85;;;10.70;99.90;;;;;;6295519;22;19996;-94
2023/02/15 12:19:52;;;;;;;12.85;4.45;;;11.00;99.90;;;;;;6295620;22;19995;-94
2023/02/15 12:22:37;;;;;;;13.27;5.28;;;10.90;99.90;;;;;;6295287;22;20003;-93
2023/02/15 12:25:26;;;;;;;11.10;5.47;;;9.30;99.90;;;;;;6293547;22;20023;-94
2023/02/15 12:28:01;;;;;;;14.73;5.45;;;10.30;99.90;;;;;;6293980;22;20314;-93
2023/02/15 12:31:08;;;;;;;11.85;5.72;;;9.00;99.90;;;;;;6293487;22;20015;-93
2023/02/15 12:33:45;;;;;;;15.30;6.85;;;8.00;99.90;;;;;;6294083;22;20007;-94
2023/02/15 12:36:23;;;;;;;15.93;5.03;;;10.40;99.90;;;;;;6286111;22;20056;-94
2023/02/15 12:39:19;;;;;;;10.32;5.40;;;9.30;99.90;;;;;;6296991;22;20010;-94
2023/02/15 12:42:37;;;;;;;;;;;;;;;;;;;;;
2023/02/15 12:48:47;;;;;;;9.27;3.47;;;9.70;99.90;;;;;;6326060;22;20003;-94
2023/02/15 12:51:51;;;;;;;13.15;4.18;;;9.80;99.90;;;;;;6242559;22;20022;-94
2023/02/15 12:54:59;;;;;;;12.68;4.18;;;9.40;99.90;;;;;;6315724;22;19999;-93
2023/02/15 12:58:13;;;;;;;13.18;4.03;;;9.70;99.90;;;;;;6292628;22;19999;-94
2023/02/15 13:17:49;;;;;;;9.35;3.47;;;11.60;99.90;;;;;;6250792;23;20085;-93
2023/02/15 13:20:40;;;;;;;8.63;3.42;;;11.30;99.90;;;;;;6285069;22;19996;-91
2023/02/15 13:23:52;;;;;;;;;;;;;;;;;;;;;
2023/02/15 13:26:56;;;;;;;8.20;3.88;;;10.70;99.90;;;;;;6318729;22;20034;-93
2023/02/15 13:29:48;;;;;;;11.75;3.78;;;10.70;99.90;;;;;;6291792;22;19999;-93
2023/02/15 13:32:39;;;;;;;8.65;3.33;;;11.70;99.90;;;;;;6290926;22;20026;-92
2023/02/15 13:38:07;;;;;;;8.57;4.03;;;10.70;99.90;;;;;;6307545;22;20784;-88
2023/02/15 13:40:40;;;;;;;9.35;4.15;;;11.60;99.90;;;;;;6305473;22;19999;-89
2023/02/15 13:43:38;;;;;;;8.88;3.90;;;12.80;99.90;;;;;;6307295;22;20006;-91
2023/02/15 13:46:32;;;;;;;9.75;4.25;;;11.30;99.90;;;;;;6280071;22;20422;-91
2023/02/15 13:49:30;;;;;;;10.07;3.63;;;11.70;99.90;;;;;;6282150;22;20063;-92
2023/02/15 13:52:10;;;;;;;8.15;3.90;;;11.30;99.90;;;;;;6283006;22;20014;-91
2023/02/15 13:54:42;;;;;;;7.72;3.92;;;11.30;99.90;;;;;;6281886;22;19999;-91
2023/02/15 13:57:32;;;;;;;11.98;4.38;;;11.20;99.90;;;;;;6282822;22;20445;-91
2023/02/15 14:00:20;;;;;;;12.40;4.95;;;11.40;99.90;;;;;;6282072;22;20010;-91
2023/02/15 14:03:26;;;;;;;10.88;4.60;;;12.30;99.90;;;;;;6282085;22;20027;-91
2023/02/15 14:06:32;;;;;;;10.07;4.05;;;11.70;99.90;;;;;;6288251;22;20000;-91
2023/02/15 14:09:09;;;;;;;8.65;3.67;;;11.90;99.90;;;;;;6284284;22;20034;-91
2023/02/15 14:11:45;;;;;;;9.52;3.90;;;11.80;99.90;;;;;;6286562;22;20014;-91
2023/02/15 14:14:22;;;;;;;12.52;4.45;;;13.30;99.90;;;;;;6287597;22;20521;-91
2023/02/15 14:17:01;;;;;;;10.98;4.30;;;12.40;99.90;;;;;;6289209;22;19999;-91
2023/02/15 14:19:37;;;;;;;9.48;4.38;;;13.60;99.90;;;;;;6297248;22;20334;-90
2023/02/15 14:23:38;;;;;;;;;;;;;;;;;;;;;
2023/02/15 14:26:37;;;;;;;9.07;4.20;;;11.00;99.90;;;;;;6271452;22;20004;-92
2023/02/15 15:36:41;;;;;;;7.55;3.13;;;13.30;99.90;;;;;;6281188;22;20024;-90
2023/02/15 15:39:41;;;;;;;7.70;3.20;;;12.60;99.90;;;;;;6260380;22;20004;-91
2023/02/15 15:42:58;;;;;;;;;;;;;;;;;;;;;
2023/02/15 15:45:49;;;;;;;7.35;3.13;;;;;;;;;;6289530;22;20027;-89
2023/02/15 15:52:07;;;;;;;8.52;3.67;;;;;;;;;;6287201;22;20004;-91
2023/02/15 16:26:13;;;;;;;14.57;4.32;;;;;;;;;;6310609;22;20038;-91
2023/02/15 16:29:17;;;;;;;11.35;3.88;;;9.10;99.90;;;;;;6288080;22;20004;-92
2023/02/15 16:32:24;;;;;;;9.65;3.70;;;8.70;99.90;;;;;;6285468;22;20006;-91
2023/02/15 16:35:20;;;;;;;11.38;4.47;;;7.80;99.90;;;;;;6283172;22;19999;-93
2023/02/15 16:38:09;;;;;;;11.57;3.15;;;8.80;99.90;;;;;;6284934;22;20007;-91
2023/02/15 16:41:00;;;;;;;13.27;3.70;;;9.00;99.90;;;;;;6284587;22;20007;-91
2023/02/15 16:43:51;;;;;;;;;;;;;;;;;;;;;
2023/02/15 16:46:41;;;;;;;7.50;2.70;;;9.00;99.90;;;;;;6306625;22;20066;-89
2023/02/15 16:49:39;;;;;;;10.60;3.42;;;11.40;99.90;;;;;;6281484;22;20258;-91
2023/02/15 16:52:15;;;;;;;8.75;2.80;;;8.60;99.90;;;;;;6277562;22;20053;-90
2023/02/15 16:57:45;;;;;;;13.15;3.58;;;8.60;99.90;;;;;;6283073;22;19999;-89
2023/02/15 17:00:33;;;;;;;7.25;3.17;;;8.70;99.90;;;;;;6283495;22;20029;-89
2023/02/15 17:03:30;;;;;;;8.63;3.03;;;8.00;99.90;;;;;;6310147;22;20026;-90
2023/02/15 17:05:58;;;;;;;9.57;3.13;;;4.40;99.90;;;;;;6283442;22;20010;-90
2023/02/15 17:08:47;;;;;;;9.80;3.40;;;9.90;99.90;;;;;;6281186;22;20257;-89
2023/02/15 17:11:18;;;;;;;6.65;2.97;;;7.70;99.90;;;;;;6272649;22;20003;-90
2023/02/15 17:14:09;;;;;;;10.82;3.13;;;7.20;99.90;;;;;;6312443;22;20491;-89
2023/02/15 17:17:11;;;;;;;10.40;3.30;;;7.30;99.90;;;;;;6311317;22;20007;-88
2023/02/15 17:20:01;;;;;;;8.45;2.70;;;6.20;99.90;;;;;;6285410;22;20014;-90
2023/02/15 17:22:31;;;;;;;10.13;3.47;;;9.70;99.90;;;;;;6313751;22;20010;-89
2023/02/15 17:25:31;;;;;;;10.98;3.80;;;7.10;99.90;;;;;;6287262;22;19999;-88
2023/02/15 17:27:57;;;;;;;13.05;4.03;;;7.00;99.90;;;;;;6222566;22;20016;-89
2023/02/15 17:30:38;;;;;;;10.73;4.15;;;8.40;99.90;;;;;;6312877;22;19996;-89
2023/02/15 17:33:32;;;;;;;;;;;;;;;;;;;;;
2023/02/15 17:46:43;;;;;;;11.18;4.10;;;;;;;;;;6277858;22;20023;-88
2023/02/15 17:52:20;;;;;;;7.93;2.97;;;;;;;;;;6284453;22;20007;-90
2023/02/15 17:55:48;;;;;;;12.10;3.70;;;6.10;99.90;;;;;;6296581;22;20007;-89